22 de maio de 2022

Tempo Código Clima Temp. Visão Nuvens Vento METAR/SPECI
17:30
V
29 °C 10 km+ - 150°   150° 16 kt METAR WAKK 220730Z 15016KT 9999 SCT016 29/25 Q1007 NOSIG
17:00
M
30 °C 7 km - 140°   140° 18 kt METAR WAKK 220700Z 14018KT 7000 SCT016 30/25 Q1006 NOSIG
16:30
M
30 °C 7 km 1.400 ft 150°   150° 16 kt METAR WAKK 220630Z 15016KT 7000 BKN014 30/25 Q1006 RESHRA NOSIG
16:00
M
30 °C 5 km - 150°   150° 16 kt METAR WAKK 220600Z 15016KT 5000 -SHRA SCT014 30/25 Q1006 BECMG FM0600 9999 NSW
15:30
V
29 °C 10 km+ - 160°   160° 13 kt METAR WAKK 220530Z 16013KT 9999 SCT016 29/25 Q1006 NOSIG
15:00
V
30 °C 10 km+ - 150°   150° 15 kt METAR WAKK 220500Z 15015KT 9999 SCT016 30/24 Q1007 NOSIG
14:30
V
30 °C 10 km+ - 170°   170° 13 kt METAR WAKK 220430Z 17013KT 9999 FEW016 30/24 Q1007 NOSIG
14:00
V
31 °C 10 km+ - 150°   150° 12 kt METAR WAKK 220400Z 15012KT 9999 SCT016 31/25 Q1007 NOSIG
13:30
V
30 °C 10 km+ - 160°   160° 8 kt METAR WAKK 220330Z 16008KT 9999 SCT016 30/25 Q1008 NOSIG
13:00
V
30 °C 10 km+ - 150°   150° 11 kt METAR WAKK 220300Z 15011KT 9999 SCT016 30/25 Q1008 NOSIG
12:30
V
30 °C 10 km+ - 160°   160° 6 kt METAR WAKK 220230Z 16006KT 9999 SCT016 30/23 Q1009 NOSIG
12:00
V
30 °C 10 km+ - 120°   120° 7 kt METAR WAKK 220200Z 12007KT 9999 SCT016 30/23 Q1009 NOSIG
11:30
V
31 °C 10 km+ - 130°   130° 8 kt METAR WAKK 220130Z 13008KT 9999 FEW016 31/23 Q1009 NOSIG
11:00
V
30 °C 10 km+ - 100°   100° 7 kt METAR WAKK 220100Z 10007KT 9999 FEW016 30/23 Q1010 NOSIG
10:30
V
29 °C 10 km+ - 110°   110° 9 kt METAR WAKK 220030Z 11009KT 9999 FEW016 29/23 Q1010 NOSIG
10:00
V
29 °C 10 km+ - 100°   100° 8 kt METAR WAKK 220000Z 10008KT 9999 FEW016 29/24 Q1010 NOSIG
09:30
V
29 °C 10 km+ - 100°   100° 7 kt METAR WAKK 212330Z 10007KT 9999 FEW016 29/24 Q1010 NOSIG
09:00
V
28 °C 10 km+ - 100°   100° 7 kt METAR WAKK 212300Z 10007KT CAVOK 28/24 Q1010 NOSIG
08:30
V
27 °C 10 km+ - 080°   080° 5 kt METAR WAKK 212230Z 08005KT CAVOK 27/25 Q1009 NOSIG
08:00
V
26 °C 9 km - 080°   080° 4 kt METAR WAKK 212200Z 08004KT 9000 NSC 26/25 Q1009 NOSIG
07:30
V
25 °C 10 km+ - Var   000° 0 kt METAR WAKK 212130Z 00000KT 9999 FEW016 25/24 Q1009 NOSIG
07:00
V
25 °C 10 km+ - Var   000° 0 kt METAR WAKK 212100Z 00000KT 9999 FEW016 25/24 Q1009 NOSIG

21 de maio de 2022

Tempo Código Clima Temp. Visão Nuvens Vento METAR/SPECI
18:00
V
30 °C 10 km+ - 120°   120° 7 kt METAR WAKK 210800Z 12007KT 9999 FEW017 30/23 Q1007
17:30
V
30 °C 10 km+ - 130°   130° 12 kt METAR WAKK 210730Z 13012KT 9999 FEW015 30/25 Q1006 NOSIG
17:00
V
31 °C 10 km+ - 120°   120° 8 kt METAR WAKK 210700Z 12008KT 9999 FEW015 31/23 Q1006 NOSIG
16:30
V
31 °C 10 km+ - 140°   140° 13 kt METAR WAKK 210630Z 14013KT 9999 SCT016 31/25 Q1006 NOSIG
15:30
V
31 °C 10 km+ - 160°   160° 13 kt METAR WAKK 210530Z 16013KT 9999 SCT015 31/26 Q1006 NOSIG
15:00
V
31 °C 10 km+ - 150°   150° 16 kt METAR WAKK 210500Z 15016KT 9999 SCT015 31/26 Q1007 NOSIG
14:30
V
31 °C 10 km+ - 160°   160° 14 kt METAR WAKK 210430Z 16014KT 9999 SCT015 31/25 Q1008 NOSIG
14:00
V
31 °C 10 km+ - 150°   150° 12 kt METAR WAKK 210400Z 15012KT 9999 SCT015 31/25 Q1008 NOSIG
13:30
V
31 °C 10 km+ - 160°   160° 13 kt METAR WAKK 210330Z 16013KT 9999 SCT015 31/25 Q1008 NOSIG
13:00
V
30 °C 10 km+ - 150°   150° 11 kt METAR WAKK 210300Z 15011KT 9999 SCT015 30/26 Q1009 NOSIG
12:30
V
32 °C 10 km+ - 110°   110° 9 kt METAR WAKK 210230Z 11009KT 9999 SCT015 32/25 Q1009 NOSIG
12:00
V
31 °C 10 km+ - 120°   120° 11 kt METAR WAKK 210200Z 12011KT 9999 SCT015 31/25 Q1010 NOSIG
11:30
V
31 °C 10 km+ - 120°   120° 12 kt METAR WAKK 210130Z 12012KT 9999 SCT015 31/25 Q1010 NOSIG
11:00
V
30 °C 10 km+ - 070°   070° 10 kt METAR WAKK 210100Z 07010KT 9999 SCT015 30/25 Q1010 NOSIG
10:30
V
30 °C 10 km+ - 100°   100° 9 kt METAR WAKK 210030Z 10009KT 9999 FEW015 30/25 Q1011 NOSIG
10:00
V
29 °C 10 km+ - 110°   110° 10 kt METAR WAKK 210000Z 11010KT 9999 FEW015 29/25 Q1011 NOSIG
09:30
V
28 °C 10 km+ - 090°   090° 7 kt METAR WAKK 202330Z 09007KT CAVOK 28/25 Q1011 NOSIG
09:00
V
28 °C 10 km+ - 090°   090° 6 kt METAR WAKK 202300Z 09006KT CAVOK 28/26 Q1011 NOSIG
08:30
V
26 °C 10 km+ - 060°   060° 4 kt METAR WAKK 202230Z 06004KT 9999 FEW017 26/24 Q1011 NOSIG
08:00
V
25 °C 10 km+ - 070°   070° 3 kt METAR WAKK 202200Z 07003KT 9999 FEW017 25/24 Q1011 NOSIG
07:30
V
24 °C 10 km+ - 070°   070° 2 kt METAR WAKK 202130Z 07002KT 9999 FEW015 24/24 Q1011

20 de maio de 2022

Tempo Código Clima Temp. Visão Nuvens Vento METAR/SPECI
18:00
V
29 °C 10 km+ - 140°   140° 10 kt METAR WAKK 200800Z 14010KT 9999 FEW017 29/26 Q1008 NOSIG
17:30
V
30 °C 10 km+ - 140°   140° 14 kt METAR WAKK 200730Z 14014KT 9999 FEW016 30/26 Q1008 NOSIG
17:00
V
30 °C 10 km+ - 150°   150° 15 kt METAR WAKK 200700Z 15015KT 9999 FEW016 30/26 Q1008 NOSIG
Dados mais antigos

Baixe nosso aplicativo

Fácil acesso a todas as condições meteorológicas da aviação no seu celular e no seu tablet.
Com muitos recursos não disponíveis no site, como suporte offline e uma lista pessoal de aeroportos.

Nós e terceiros acompanhamos seu comportamento na internet em nosso site com cookies. Se você continuar, nós assumimos que você concorda com nossa política de cookies. Saiba mais